Time;durP1;ratioP1;P1;durP2;ratioP2;P2;SDS_P1;SDS_P2;PMS_P1;PMS_P2;Temp;Humidity;BMP_temperature;BMP_pressure;BME280_temperature;BME280_humidity;BME280_pressure;Samples;Min_cycle;Max_cycle;Signal;HPM_P1;HPM_P2
2023/01/03 00:00:34;;;;;;;1410.82;832.05;;;;;;;12.27;95.06;99861.72;5098456;28;20020;-46
2023/01/03 00:03:00;;;;;;;783.45;652.42;;;;;;;12.28;95.15;99868.63;5097130;28;20077;-46
2023/01/03 00:05:25;;;;;;;399.35;356.58;;;;;;;12.49;95.36;99862.63;5098761;28;20028;-47
2023/01/03 00:07:51;;;;;;;103.70;92.80;;;;;;;12.72;94.02;99859.06;5097105;28;20024;-46
2023/01/03 00:10:17;;;;;;;542.28;483.50;;;;;;;12.61;92.58;99867.41;5097155;28;20024;-47
2023/01/03 00:12:42;;;;;;;176.90;160.48;;;;;;;12.62;92.58;99875.16;5097107;28;20012;-47
2023/01/03 00:15:09;;;;;;;126.15;114.53;;;;;;;12.59;92.78;99873.69;5098424;28;20028;-46
2023/01/03 00:17:34;;;;;;;113.85;103.45;;;;;;;12.56;93.11;99874.06;5097161;28;20026;-46
2023/01/03 00:20:00;;;;;;;145.40;132.75;;;;;;;12.48;92.72;99870.72;5097023;28;20023;-46
2023/01/03 00:22:29;;;;;;;179.32;161.77;;;;;;;12.46;93.10;99870.91;5098460;28;20035;-46
2023/01/03 00:24:55;;;;;;;173.50;157.20;;;;;;;12.39;93.01;99867.34;5098248;28;20027;-46
2023/01/03 00:27:20;;;;;;;662.15;589.95;;;;;;;12.32;93.98;99866.47;5098089;28;20051;-46
2023/01/03 00:29:46;;;;;;;704.15;628.05;;;;;;;12.44;95.05;99869.44;5096882;28;20023;-47
2023/01/03 00:32:12;;;;;;;311.17;278.52;;;;;;;12.63;95.39;99873.31;5098230;28;20333;-47
2023/01/03 00:34:38;;;;;;;71.82;64.32;;;;;;;12.51;94.37;99873.78;5096905;28;20126;-46
2023/01/03 00:37:04;;;;;;;43.75;39.30;;;;;;;12.25;92.95;99861.09;5098187;28;20095;-47
2023/01/03 00:39:29;;;;;;;55.10;49.33;;;;;;;11.94;92.87;99867.34;5098106;28;20020;-47
2023/01/03 00:41:55;;;;;;;77.20;69.20;;;;;;;11.73;93.15;99867.19;5098096;28;20065;-47
2023/01/03 00:44:21;;;;;;;146.25;127.85;;;;;;;11.62;94.04;99867.63;5096724;28;20084;-46
2023/01/03 00:46:46;;;;;;;126.88;112.07;;;;;;;11.69;94.49;99860.66;5096722;28;20028;-47
2023/01/03 00:49:12;;;;;;;66.13;47.72;;;;;;;11.86;94.96;99863.94;5079891;28;20020;-47
2023/01/03 00:51:39;;;;;;;41.30;28.73;;;;;;;12.16;95.31;99865.63;5097983;28;20071;-47
2023/01/03 00:54:06;;;;;;;114.63;67.13;;;;;;;12.26;94.96;99857.47;5096721;28;20024;-47
2023/01/03 00:56:36;;;;;;;18.77;10.45;;;;;;;12.47;93.98;99858.53;5097995;28;20107;-47
2023/01/03 00:59:03;;;;;;;257.90;36.15;;;;;;;12.53;93.43;99853.34;5098035;28;20020;-46
2023/01/03 01:01:34;;;;;;;108.45;81.72;;;;;;;12.61;92.63;99848.97;5097809;28;20020;-47
2023/01/03 01:04:07;;;;;;;698.67;466.10;;;;;;;12.61;92.00;99851.63;5093408;28;20085;-46
2023/01/03 01:06:37;;;;;;;436.98;333.52;;;;;;;12.62;92.58;99854.06;5077157;28;20089;-46
2023/01/03 01:09:05;;;;;;;908.15;574.95;;;;;;;12.57;91.47;99846.72;5094653;28;20390;-47
2023/01/03 01:11:32;;;;;;;998.70;659.03;;;;;;;12.56;91.23;99854.81;5093330;28;20024;-47
2023/01/03 01:13:57;;;;;;;985.35;638.78;;;;;;;12.55;91.48;99843.44;5094804;28;20103;-46
2023/01/03 01:16:30;;;;;;;1139.00;728.88;;;;;;;12.49;91.08;99852.09;5093240;28;20545;-47
2023/01/03 01:18:59;;;;;;;121.03;64.03;;;;;;;12.63;91.23;99846.97;5093500;28;20116;-46
2023/01/03 01:21:29;;;;;;;617.30;411.73;;;;;;;12.47;90.25;99832.22;5094429;28;20046;-47
2023/01/03 01:23:56;;;;;;;301.20;164.82;;;;;;;12.28;90.71;99829.16;5093029;28;20035;-46
2023/01/03 01:26:23;;;;;;;264.23;162.00;;;;;;;12.07;90.09;99843.03;5094040;28;20418;-47
2023/01/03 01:28:50;;;;;;;499.13;386.92;;;;;;;11.82;90.82;99850.34;5094236;28;20509;-46
2023/01/03 01:31:22;;;;;;;1227.30;765.28;;;;;;;11.89;91.97;99847.81;5094268;28;20035;-46
2023/01/03 01:33:47;;;;;;;840.95;628.28;;;;;;;11.97;91.77;99847.75;5092900;28;20056;-46
2023/01/03 01:36:25;;;;;;;889.78;680.90;;;;;;;12.01;91.62;99845.56;5094165;28;20089;-46
2023/01/03 01:38:57;;;;;;;684.28;608.78;;;;;;;12.10;91.61;99842.69;5094173;28;20040;-46
2023/01/03 01:44:40;;;;;;;767.33;594.35;;;;;;;12.38;90.95;99849.94;5094113;28;20035;-46
2023/01/03 01:47:15;;;;;;;727.55;590.38;;;;;;;12.33;91.23;99847.81;5092652;28;20073;-46
2023/01/03 01:49:41;;;;;;;425.48;379.38;;;;;;;12.28;91.60;99844.94;5093917;28;20020;-46
2023/01/03 01:52:08;;;;;;;390.35;352.98;;;;;;;12.28;91.48;99857.28;5093881;28;20062;-46
2023/01/03 01:54:34;;;;;;;443.98;396.00;;;;;;;12.45;91.78;99852.63;5093803;28;20035;-46
2023/01/03 01:57:00;;;;;;;340.08;305.10;;;;;;;12.70;91.29;99859.22;5092503;28;20024;-46
2023/01/03 01:59:27;;;;;;;165.15;148.80;;;;;;;12.85;90.12;99859.19;5109500;28;20077;-46
2023/01/03 02:01:53;;;;;;;174.77;158.30;;;;;;;12.82;89.37;99866.63;5093907;28;20366;-46
2023/01/03 02:04:25;;;;;;;148.98;134.50;;;;;;;12.69;88.24;99867.31;5093538;28;20017;-45
2023/01/03 02:06:52;;;;;;;197.32;178.55;;;;;;;12.57;88.15;99859.06;5092257;28;20027;-46
2023/01/03 02:09:18;;;;;;;204.77;186.05;;;;;;;12.51;89.16;99859.81;5093504;28;20028;-46
2023/01/03 02:15:11;;;;;;;539.03;115.75;;;;;;;12.61;88.78;99856.88;5093151;28;20096;-46
2023/01/03 02:18:06;;;;;;;287.38;58.85;;;;;;;12.58;88.83;99864.16;5092104;28;20024;-47
2023/01/03 02:20:40;;;;;;;402.73;45.45;;;;;;;12.46;89.17;99860.38;5093321;28;20035;-47
2023/01/03 02:23:27;;;;;;;348.65;167.80;;;;;;;12.34;88.80;99854.75;5093258;28;20020;-47
2023/01/03 02:26:07;;;;;;;178.20;149.65;;;;;;;12.37;89.12;99856.19;5091857;28;20524;-46
2023/01/03 02:28:52;;;;;;;36.47;26.15;;;;;;;12.36;88.58;99855.38;5093157;28;20508;-46
2023/01/03 02:31:36;;;;;;;16.23;11.43;;;;;;;12.21;88.24;99859.00;5093224;28;20082;-47
2023/01/03 02:34:20;;;;;;;46.17;33.28;;;;;;;11.97;88.04;99855.63;5091732;28;20035;-47
2023/01/03 02:36:57;;;;;;;103.78;83.50;;;;;;;11.93;89.21;99862.25;5092874;28;20115;-46
2023/01/03 02:39:47;;;;;;;156.13;127.25;;;;;;;11.96;89.49;99856.66;5091672;28;20032;-47
2023/01/03 02:42:57;;;;;;;124.50;111.38;;;;;;;12.04;89.54;99859.19;5092902;28;20028;-47
2023/01/03 02:45:34;;;;;;;55.53;49.45;;;;;;;12.22;89.01;99861.47;5092818;28;20114;-47
2023/01/03 02:48:16;;;;;;;27.90;24.55;;;;;;;12.26;87.91;99857.47;5091472;28;20074;-47
2023/01/03 02:50:47;;;;;;;79.80;62.83;;;;;;;12.21;87.51;99849.28;5092794;28;20408;-47
2023/01/03 02:53:19;;;;;;;125.95;112.70;;;;;;;12.15;87.51;99852.66;5091389;28;20492;-46
2023/01/03 02:55:48;;;;;;;86.30;26.90;;;;;;;12.10;87.19;99863.72;5092664;28;20056;-47
2023/01/03 02:58:27;;;;;;;733.83;146.20;;;;;;;11.97;86.52;99866.16;5092553;28;20103;-47
2023/01/03 03:00:55;;;;;;;217.98;43.08;;;;;;;11.91;86.52;99859.00;5092484;28;20133;-47
2023/01/03 03:03:28;;;;;;;232.45;115.43;;;;;;;11.87;86.36;99865.56;5092379;28;20382;-47
2023/01/03 03:06:06;;;;;;;215.48;176.73;;;;;;;12.12;88.49;99861.72;5091176;28;20035;-47
2023/01/03 03:08:32;;;;;;;132.35;92.95;;;;;;;12.49;88.79;99859.97;5092385;28;20035;-46
2023/01/03 03:13:53;;;;;;;110.03;95.82;;;;;;;12.76;87.15;99858.50;5092654;28;20414;-47
2023/01/03 03:25:27;;;;;;;200.70;180.73;;;;;;;12.99;83.61;99853.06;5091843;28;20039;-47
2023/01/03 03:30:44;;;;;;;285.60;259.77;;;;;;;13.28;85.16;99855.75;5092342;28;20528;-47
2023/01/03 03:33:13;;;;;;;109.35;98.50;;;;;;;13.54;85.98;99863.13;5092309;28;20070;-47
2023/01/03 03:35:46;;;;;;;101.00;91.07;;;;;;;13.68;84.00;99851.69;5090718;28;20023;-47
2023/01/03 03:38:17;;;;;;;29.58;26.45;;;;;;;13.16;79.03;99860.75;5090761;28;20036;-47
2023/01/03 03:46:45;;;;;;;43.25;34.63;;;;;;;13.07;84.62;99861.84;5092197;28;20115;-48
2023/01/03 03:49:38;;;;;;;6.30;4.10;;;;;;;13.09;83.07;99854.56;5091967;28;20032;-48
2023/01/03 03:52:09;;;;;;;7.93;4.72;;;;;;;12.85;83.22;99867.09;5092158;28;20093;-47
2023/01/03 03:54:38;;;;;;;14.35;11.32;;;;;;;12.62;83.11;99872.50;5091868;28;20025;-48
2023/01/03 03:57:21;;;;;;;6.30;4.47;;;;;;;12.30;81.61;99871.09;5091800;28;20025;-48
2023/01/03 03:59:52;;;;;;;32.72;28.50;;;;;;;11.78;83.14;99870.91;5092081;28;20405;-48
2023/01/03 04:02:20;;;;;;;71.38;64.05;;;;;;;11.73;84.86;99868.03;5090472;28;20057;-48
2023/01/03 04:04:51;;;;;;;4.43;2.38;;;;;;;11.68;83.76;99870.34;5090623;28;20118;-48
2023/01/03 04:07:17;;;;;;;719.40;565.40;;;;;;;11.56;85.25;99869.16;5091843;28;20020;-48
2023/01/03 04:09:43;;;;;;;95.28;60.67;;;;;;;11.61;85.14;99869.44;5091689;28;20020;-47
2023/01/03 04:12:08;;;;;;;28.05;13.57;;;;;;;11.46;84.70;99872.03;5090392;28;20133;-47
2023/01/03 04:14:34;;;;;;;54.05;39.25;;;;;;;11.30;85.89;99867.69;5091643;28;20030;-48
2023/01/03 04:17:00;;;;;;;14.40;12.07;;;;;;;11.31;86.34;99869.34;5073446;28;20393;-48
2023/01/03 04:19:25;;;;;;;8.32;6.20;;;;;;;11.15;86.28;99862.41;5091628;28;20030;-48
2023/01/03 04:21:51;;;;;;;11.90;7.57;;;;;;;11.09;87.06;99868.34;5090314;28;20038;-48
2023/01/03 04:24:19;;;;;;;6.65;3.55;;;;;;;11.18;87.92;99869.09;5091509;28;20028;-48
2023/01/03 04:26:45;;;;;;;6.65;3.28;;;;;;;11.16;87.56;99869.28;5091300;28;20086;-47
2023/01/03 04:29:11;;;;;;;5.32;3.17;;;;;;;11.09;88.02;99872.78;5091816;28;20070;-48
2023/01/03 04:31:36;;;;;;;9.38;7.47;;;;;;;11.10;88.55;99872.59;5091361;28;20493;-48
2023/01/03 04:34:02;;;;;;;5.53;3.50;;;;;;;11.15;88.54;99869.47;5091509;28;20024;-48
2023/01/03 04:36:28;;;;;;;4.68;2.75;;;;;;;11.19;88.77;99870.75;5091466;28;20052;-48
2023/01/03 04:38:53;;;;;;;5.88;4.40;;;;;;;11.20;88.54;99872.38;5094004;28;20025;-48
2023/01/03 04:41:19;;;;;;;6.90;2.88;;;;;;;11.29;88.98;99876.59;5095295;28;20107;-48
2023/01/03 04:44:03;;;;;;;9.32;3.30;;;;;;;11.42;88.94;99877.81;5095145;28;20024;-48
2023/01/03 04:46:31;;;;;;;12.95;5.63;;;;;;;11.53;89.10;99872.97;5095460;28;20024;-48
2023/01/03 04:48:57;;;;;;;4.72;2.28;;;;;;;11.79;88.69;99866.47;5093838;28;20036;-48
2023/01/03 04:51:23;;;;;;;3.58;2.38;;;;;;;11.78;88.16;99863.03;5093700;28;20088;-48
2023/01/03 04:53:49;;;;;;;5.47;3.30;;;;;;;11.79;87.83;99862.03;5095058;28;20524;-48
2023/01/03 04:56:15;;;;;;;5.90;2.88;;;;;;;11.83;87.77;99875.66;5093721;28;20052;-48
2023/01/03 04:58:40;;;;;;;5.20;3.08;;;;;;;11.76;87.36;99877.34;5094943;28;20021;-48
2023/01/03 05:01:09;;;;;;;4.18;2.78;;;;;;;11.73;87.16;99875.06;5093585;28;20032;-48
2023/01/03 05:03:36;;;;;;;8.93;3.05;;;;;;;11.52;86.74;99873.94;5094797;28;20474;-48
2023/01/03 05:06:05;;;;;;;8.68;3.90;;;;;;;11.49;87.68;99879.56;5094755;28;20027;-48
2023/01/03 05:08:31;;;;;;;9.85;3.75;;;;;;;11.71;88.29;99882.31;5094714;28;20035;-48
2023/01/03 05:10:57;;;;;;;20.15;12.00;;;;;;;11.93;88.73;99883.31;5094946;28;20154;-48
2023/01/03 05:13:23;;;;;;;6.20;3.20;;;;;;;12.24;87.84;99885.78;5093570;28;20028;-48
2023/01/03 05:15:49;;;;;;;5.70;4.97;;;;;;;12.52;86.09;99888.59;5094662;28;20020;-48
2023/01/03 05:18:14;;;;;;;9.23;5.72;;;;;;;12.52;85.28;99896.50;5094574;28;20020;-47
2023/01/03 05:26:17;;;;;;;4.80;3.13;;;;;;;12.95;83.63;99898.41;5094194;28;20035;-48
2023/01/03 05:28:45;;;;;;;8.13;5.30;;;;;;;12.86;82.33;99892.44;5094455;28;20049;-48
2023/01/03 05:31:11;;;;;;;4.25;2.90;;;;;;;12.70;81.16;99901.38;5092981;28;20270;-48
2023/01/03 05:33:38;;;;;;;4.03;3.33;;;;;;;12.44;80.99;99914.22;5092900;28;20024;-48
2023/01/03 05:36:06;;;;;;;12.65;10.88;;;;;;;12.36;82.60;99912.47;5094530;28;20099;-48
2023/01/03 05:38:31;;;;;;;12.10;4.45;;;;;;;12.66;82.51;99899.31;5094175;28;20168;-48
2023/01/03 05:40:57;;;;;;;14.23;3.88;;;;;;;12.85;81.76;99893.44;5092785;28;20099;-48
2023/01/03 05:43:23;;;;;;;8.65;6.60;;;;;;;12.89;80.61;99885.97;5092775;28;20051;-48
2023/01/03 05:45:50;;;;;;;6.47;3.35;;;;;;;12.93;80.95;99882.78;5094032;28;20024;-48
2023/01/03 05:48:16;;;;;;;4.68;3.17;;;;;;;12.84;80.49;99889.19;5093304;28;20108;-48
2023/01/03 05:50:42;;;;;;;4.63;3.92;;;;;;;12.63;79.94;99891.75;5092364;28;20589;-48
2023/01/03 05:53:08;;;;;;;5.20;4.40;;;;;;;12.44;80.48;99893.97;5093948;28;20032;-48
2023/01/03 05:55:36;;;;;;;9.07;3.65;;;;;;;12.30;80.80;99894.78;5093742;28;20012;-48
2023/01/03 05:58:02;;;;;;;26.60;20.50;;;;;;;12.24;81.26;99898.13;5094049;28;20110;-48
2023/01/03 06:00:28;;;;;;;11.52;3.85;;;;;;;12.43;81.86;99897.56;5092449;28;20020;-48
2023/01/03 06:02:54;;;;;;;8.70;3.45;;;;;;;12.54;81.09;99902.38;5093617;28;20028;-48
2023/01/03 06:05:20;;;;;;;21.08;14.85;;;;;;;12.59;81.25;99909.72;5092280;28;20490;-48
2023/01/03 06:07:45;;;;;;;17.50;12.73;;;;;;;12.76;80.50;99911.19;5093632;28;20494;-48
2023/01/03 06:10:11;;;;;;;6.15;5.55;;;;;;;12.88;79.07;99910.72;5093802;28;20035;-48
2023/01/03 06:12:37;;;;;;;12.02;4.32;;;;;;;12.87;78.39;99912.50;5092154;28;20036;-48
2023/01/03 06:15:03;;;;;;;8.50;3.97;;;;;;;12.98;78.60;99913.88;5092157;28;20016;-48
2023/01/03 06:20:13;;;;;;;5.07;3.30;;;;;;;12.70;75.97;99932.97;5093654;28;20043;-48
2023/01/03 06:22:38;;;;;;;8.20;3.85;;;;;;;12.55;77.48;99927.72;5091946;28;20490;-47
2023/01/03 06:25:04;;;;;;;6.30;3.80;;;;;;;12.63;77.71;99923.34;5093211;28;20028;-48
2023/01/03 06:27:30;;;;;;;14.73;3.58;;;;;;;12.74;76.94;99934.25;5091642;28;20505;-48
2023/01/03 06:29:56;;;;;;;6.75;3.35;;;;;;;12.56;76.25;99931.19;5091894;28;20031;-47
2023/01/03 06:32:22;;;;;;;5.07;3.65;;;;;;;12.49;77.19;99932.91;5093054;28;20024;-48
2023/01/03 06:34:48;;;;;;;8.98;4.85;;;;;;;12.57;77.70;99927.53;5091778;28;20482;-47
2023/01/03 06:37:14;;;;;;;25.23;6.90;;;;;;;12.66;77.01;99930.91;5093012;28;20027;-47
2023/01/03 06:39:39;;;;;;;22.48;6.10;;;;;;;12.55;76.85;99930.34;5093024;28;20059;-47
2023/01/03 06:53:11;;;;;;;11.02;8.55;;;;;;;12.26;77.99;99951.41;5092756;28;20034;-48
2023/01/03 06:55:36;;;;;;;19.55;11.48;;;;;;;12.21;77.94;99945.84;5092677;28;20024;-48
2023/01/03 06:58:02;;;;;;;10.18;7.97;;;;;;;12.14;77.91;99940.50;5092662;28;20092;-48
2023/01/03 07:00:28;;;;;;;6.47;5.15;;;;;;;12.14;77.87;99943.94;5092497;28;20043;-47
2023/01/03 07:02:54;;;;;;;8.20;5.28;;;;;;;12.15;78.25;99950.88;5091132;28;20028;-48
2023/01/03 07:05:19;;;;;;;14.98;6.53;;;;;;;12.19;77.52;99949.50;5091207;28;20081;-48
2023/01/03 07:07:45;;;;;;;11.75;8.00;;;;;;;12.39;78.35;99951.59;5092476;28;20052;-48
2023/01/03 07:10:11;;;;;;;13.68;8.48;;;;;;;12.72;78.13;99956.50;5092657;28;20032;-47
2023/01/03 07:15:20;;;;;;;14.85;7.50;;;;;;;13.24;75.98;99955.53;5092367;28;20161;-48
2023/01/03 07:17:46;;;;;;;12.30;6.63;;;;;;;13.31;75.38;99951.16;5092325;28;20103;-47
2023/01/03 07:20:12;;;;;;;14.43;10.32;;;;;;;13.43;75.34;99958.56;5092512;28;20118;-48
2023/01/03 07:22:37;;;;;;;9.05;7.47;;;;;;;13.56;74.83;99963.97;5090888;28;20024;-48
2023/01/03 07:25:03;;;;;;;23.23;11.65;;;;;;;13.71;74.41;99963.91;5092168;28;20020;-48
2023/01/03 07:27:29;;;;;;;26.05;6.80;;;;;;;13.85;74.04;99964.84;5090613;28;20559;-48
2023/01/03 07:29:55;;;;;;;37.10;32.45;;;;;;;14.04;73.02;99976.56;5090814;28;20027;-48
2023/01/03 07:32:20;;;;;;;15.20;6.18;;;;;;;14.10;72.32;99979.25;5090762;28;20402;-47
2023/01/03 07:34:46;;;;;;;16.33;12.73;;;;;;;14.03;71.13;99980.25;5090795;28;20063;-48
2023/01/03 07:37:11;;;;;;;10.25;5.28;;;;;;;13.87;71.69;99970.75;5091981;28;20496;-48
2023/01/03 07:39:37;;;;;;;22.83;12.80;;;;;;;13.81;71.49;99974.16;5092060;28;20463;-48
2023/01/03 07:44:47;;;;;;;6.70;3.72;;;;;;;13.23;70.15;99982.06;5091995;28;20092;-48
2023/01/03 07:47:13;;;;;;;14.52;12.40;;;;;;;13.04;72.10;99992.19;5091873;28;20103;-48
2023/01/03 07:49:39;;;;;;;12.65;6.90;;;;;;;13.18;72.30;99993.16;5090586;28;20027;-48
2023/01/03 07:52:04;;;;;;;20.42;12.25;;;;;;;13.12;71.76;100004.41;5090529;28;20490;-47
2023/01/03 07:54:30;;;;;;;13.63;10.60;;;;;;;12.98;71.65;100001.63;5091859;28;20035;-48
2023/01/03 07:56:55;;;;;;;22.17;19.92;;;;;;;12.90;72.05;100007.00;5091810;28;20026;-48
2023/01/03 07:59:21;;;;;;;6.75;5.60;;;;;;;12.84;71.71;100012.16;5091801;28;20116;-48
2023/01/03 08:01:47;;;;;;;13.50;11.98;;;;;;;12.81;72.30;100017.81;5091722;28;20031;-48
2023/01/03 08:04:12;;;;;;;18.33;12.18;;;;;;;12.83;72.57;100011.34;5090382;28;20031;-48
2023/01/03 08:06:38;;;;;;;22.92;15.18;;;;;;;12.82;72.71;100017.63;5090417;28;20028;-48
2023/01/03 08:14:32;;;;;;;22.10;15.65;;;;;;;12.91;72.95;100016.53;5096357;28;20081;-48
2023/01/03 08:16:57;;;;;;;7.45;5.95;;;;;;;12.96;72.40;100029.19;5095782;28;20402;-48
2023/01/03 08:19:23;;;;;;;10.52;8.05;;;;;;;12.95;71.75;100025.69;5094384;28;20060;-48
2023/01/03 08:21:50;;;;;;;17.55;11.23;;;;;;;12.91;71.72;100021.81;5094330;28;20127;-48
2023/01/03 08:24:15;;;;;;;13.75;11.93;;;;;;;13.00;71.51;100030.44;5094217;28;20038;-47
2023/01/03 08:26:41;;;;;;;10.00;6.50;;;;;;;12.96;71.08;100024.72;5095357;28;20429;-48
2023/01/03 08:29:07;;;;;;;23.55;16.17;;;;;;;12.91;71.68;100024.44;5094252;28;20051;-47
2023/01/03 08:31:37;;;;;;;14.00;10.90;;;;;;;13.09;72.13;100026.69;5094162;28;20035;-48
2023/01/03 08:34:06;;;;;;;7.03;4.57;;;;;;;13.27;71.66;100030.78;5095415;28;20024;-48
2023/01/03 08:36:39;;;;;;;7.18;5.07;;;;;;;13.37;71.33;100023.41;5094060;28;20032;-48
2023/01/03 08:39:08;;;;;;;7.07;6.38;;;;;;;13.57;69.69;100028.91;5094033;28;20114;-48
2023/01/03 08:41:57;;;;;;;8.63;3.35;;;;;;;13.56;70.25;100029.91;5095255;28;20504;-48
2023/01/03 08:44:23;;;;;;;6.85;4.53;;;;;;;13.68;69.46;100027.59;5095173;28;20016;-48
2023/01/03 08:46:53;;;;;;;11.50;5.68;;;;;;;13.83;69.05;100038.13;5095234;28;20070;-48
2023/01/03 08:49:20;;;;;;;5.97;3.58;;;;;;;13.78;67.95;100039.50;5093851;28;20464;-47
2023/01/03 08:51:45;;;;;;;2.95;2.65;;;;;;;13.78;67.65;100036.03;5095139;28;20020;-47
2023/01/03 08:54:11;;;;;;;4.90;3.60;;;;;;;13.82;67.17;100041.75;5093732;28;20042;-47
2023/01/03 08:56:38;;;;;;;8.30;3.58;;;;;;;13.93;67.08;100044.72;5093689;28;20034;-48
2023/01/03 08:59:04;;;;;;;12.93;4.32;;;;;;;14.05;67.48;100052.94;5094876;28;20032;-48
2023/01/03 09:01:29;;;;;;;11.05;7.72;;;;;;;14.18;67.16;100050.44;5093534;28;20120;-47
2023/01/03 09:03:55;;;;;;;7.28;5.38;;;;;;;14.16;66.28;100048.97;5093484;28;20119;-48
2023/01/03 09:06:21;;;;;;;12.80;8.02;;;;;;;14.05;66.34;100052.13;5093561;28;20020;-48
2023/01/03 09:08:47;;;;;;;7.15;5.82;;;;;;;13.98;66.95;100047.63;5094776;28;20453;-48
2023/01/03 09:11:14;;;;;;;3.88;3.17;;;;;;;13.98;66.64;100055.53;5094979;28;20032;-48
2023/01/03 09:13:40;;;;;;;10.13;3.40;;;;;;;14.13;67.19;100052.00;5093449;28;20042;-48
2023/01/03 09:16:11;;;;;;;8.55;6.93;;;;;;;14.29;67.03;100051.72;5094526;28;20016;-48
2023/01/03 09:18:38;;;;;;;32.00;21.20;;;;;;;14.26;66.23;100061.84;5093525;28;20032;-48
2023/01/03 09:21:05;;;;;;;136.70;122.25;;;;;;;14.29;66.77;100061.47;5093153;28;20030;-48
2023/01/03 09:23:33;;;;;;;127.28;112.25;;;;;;;14.48;66.13;100063.44;5091818;28;20035;-48
2023/01/03 09:25:58;;;;;;;147.65;129.00;;;;;;;14.30;65.55;100060.47;5094435;28;20390;-48
2023/01/03 09:28:25;;;;;;;177.57;158.63;;;;;;;14.36;66.19;100055.22;5094451;28;20072;-48
2023/01/03 09:30:50;;;;;;;18.27;14.57;;;;;;;14.56;65.26;100063.34;5094352;28;20024;-48
2023/01/03 09:33:16;;;;;;;72.35;65.10;;;;;;;14.71;65.07;100062.44;5092942;28;20409;-48
2023/01/03 09:35:42;;;;;;;17.63;8.30;;;;;;;14.83;64.24;100065.34;5094213;28;20057;-48
2023/01/03 09:38:08;;;;;;;8.25;3.10;;;;;;;14.75;63.95;100072.44;5092900;28;20047;-48
2023/01/03 09:40:39;;;;;;;21.67;4.78;;;;;;;14.49;63.64;100070.38;5094150;28;20024;-48
2023/01/03 09:43:19;;;;;;;8.77;1.95;;;;;;;14.34;63.69;100057.25;5094054;28;20023;-48
2023/01/03 09:45:50;;;;;;;13.02;2.40;;;;;;;14.23;63.91;100067.53;5094118;28;20031;-48
2023/01/03 09:48:20;;;;;;;11.38;3.80;;;;;;;14.20;64.53;100068.69;5094035;28;20444;-48
2023/01/03 09:50:46;;;;;;;7.28;5.18;;;;;;;14.26;63.66;100067.13;5092973;28;20032;-48
2023/01/03 10:05:43;;;;;;;8.93;2.63;;;;;;;14.14;63.89;100083.47;5092896;28;20031;-47
2023/01/03 10:08:27;;;;;;;12.77;3.45;;;;;;;14.15;63.74;100079.84;5093648;28;20401;-48
2023/01/03 10:11:05;;;;;;;21.50;18.65;;;;;;;14.13;64.28;100081.84;5093625;28;20103;-48
2023/01/03 10:13:43;;;;;;;12.48;8.88;;;;;;;14.33;64.19;100082.03;5093565;28;20024;-48
2023/01/03 10:16:27;;;;;;;13.05;3.00;;;;;;;14.51;63.76;100081.56;5093497;28;20020;-48
2023/01/03 10:19:11;;;;;;;10.05;2.47;;;;;;;14.41;62.95;100075.81;5093418;28;20073;-48
2023/01/03 10:21:54;;;;;;;6.15;2.30;;;;;;;14.47;63.43;100087.44;5092043;28;20064;-48
2023/01/03 10:24:49;;;;;;;11.18;2.13;;;;;;;14.61;62.72;100091.00;5091975;28;20111;-48
2023/01/03 10:27:16;;;;;;;10.80;3.28;;;;;;;14.45;63.40;100095.53;5084276;28;20040;-48
2023/01/03 10:29:44;;;;;;;9.27;2.30;;;;;;;14.46;63.10;100083.16;5093153;28;20028;-48
2023/01/03 10:32:24;;;;;;;12.02;2.75;;;;;;;14.71;63.48;100087.03;5093202;28;20024;-48
2023/01/03 10:35:16;;;;;;;8.10;3.38;;;;;;;15.12;62.26;100080.97;5091436;28;20071;-48
2023/01/03 10:37:43;;;;;;;21.70;10.48;;;;;;;15.15;61.64;100079.75;5091810;28;20032;-48
2023/01/03 10:40:09;;;;;;;8.38;2.95;;;;;;;15.34;61.43;100079.03;5092946;28;20016;-48
2023/01/03 10:42:38;;;;;;;7.15;1.92;;;;;;;15.48;60.71;100079.91;5092986;28;20039;-48
2023/01/03 10:45:09;;;;;;;9.55;2.80;;;;;;;15.56;60.51;100073.63;5091492;28;20024;-48
2023/01/03 10:47:35;;;;;;;7.93;1.80;;;;;;;15.58;59.11;100072.41;5091635;28;20032;-48
2023/01/03 10:50:04;;;;;;;3.50;2.15;;;;;;;15.36;59.20;100061.13;5091488;28;20023;-48
2023/01/03 10:52:38;;;;;;;1021.22;562.35;;;;;;;15.23;60.01;100076.13;5092708;28;20020;-48
2023/01/03 10:55:13;;;;;;;139.35;115.60;;;;;;;15.17;60.29;100075.09;5091406;28;20027;-47
2023/01/03 10:58:01;;;;;;;22.15;11.15;;;;;;;15.21;60.13;100067.59;5092726;28;20036;-48
2023/01/03 11:00:32;;;;;;;14.77;7.68;;;;;;;15.15;59.88;100074.47;5092638;28;20478;-47
2023/01/03 11:03:11;;;;;;;17.15;6.85;;;;;;;14.89;60.82;100073.31;5091227;28;20024;-48
2023/01/03 11:05:40;;;;;;;18.13;10.77;;;;;;;14.94;61.99;100073.53;5092628;28;20112;-48
2023/01/03 11:08:52;;;;;;;9.98;2.80;;;;;;;15.36;61.09;100074.38;5092492;28;20031;-48
2023/01/03 11:11:31;;;;;;;12.25;3.00;;;;;;;15.57;60.18;100070.81;5092161;28;20037;-47
2023/01/03 11:14:14;;;;;;;6.65;4.63;;;;;;;15.65;59.72;100069.78;5091386;28;20478;-48
2023/01/03 11:16:40;;;;;;;40.78;34.60;;;;;;;15.68;60.24;100065.94;5092345;28;20066;-48
2023/01/03 11:19:06;;;;;;;61.13;53.95;;;;;;;16.13;59.67;100069.69;5092304;28;20028;-48
2023/01/03 11:21:44;;;;;;;60.33;54.28;;;;;;;16.64;58.40;100062.16;5092290;28;20039;-47
2023/01/03 11:24:45;;;;;;;22.00;18.90;;;;;;;16.75;57.33;100072.13;5092217;28;20032;-48
2023/01/03 11:27:20;;;;;;;6.13;1.55;;;;;;;17.19;55.30;100059.22;5090693;28;20501;-48
2023/01/03 11:30:01;;;;;;;3.95;2.20;;;;;;;16.96;55.01;100052.53;5092233;28;20035;-48
2023/01/03 11:32:33;;;;;;;16.90;8.60;;;;;;;16.78;55.83;100064.59;5090778;28;20034;-48
2023/01/03 11:35:23;;;;;;;7.10;1.75;;;;;;;16.84;54.86;100060.34;5090811;28;20020;-48
2023/01/03 11:37:54;;;;;;;18.13;6.25;;;;;;;16.82;54.78;100054.44;5092176;28;20024;-48
2023/01/03 11:40:50;;;;;;;12.93;5.63;;;;;;;16.84;54.48;100052.38;5092044;28;20194;-48
2023/01/03 11:43:45;;;;;;;10.57;7.95;;;;;;;17.09;54.47;100043.75;5092012;28;20051;-48
2023/01/03 11:46:33;;;;;;;5.23;3.57;;;;;;;17.34;53.88;100046.47;5091449;28;20035;-48
2023/01/03 11:49:18;;;;;;;6.00;1.90;;;;;;;17.74;53.35;100041.78;5091991;28;20035;-48
2023/01/03 11:51:56;;;;;;;4.60;1.92;;;;;;;18.57;51.83;100037.28;5049929;28;20104;-46
2023/01/03 11:55:01;;;;;;;2.17;1.17;;;;;;;19.80;49.33;100035.47;5091913;28;20032;-46
2023/01/03 11:57:45;;;;;;;3.15;1.20;;;;;;;19.93;47.86;100031.78;5091915;28;20020;-45
2023/01/03 12:00:33;;;;;;;6.20;4.03;;;;;;;19.81;46.96;100033.59;5091804;28;20078;-46
2023/01/03 12:03:15;;;;;;;3.83;2.00;;;;;;;19.90;45.97;100029.56;5091783;28;20028;-46
2023/01/03 12:06:19;;;;;;;4.32;0.82;;;;;;;19.71;46.35;100029.63;5090602;28;20039;-46
2023/01/03 12:08:57;;;;;;;5.53;1.38;;;;;;;19.52;45.87;100017.38;5082012;28;20545;-45
2023/01/03 12:11:28;;;;;;;6.68;1.00;;;;;;;18.92;46.44;100029.59;5091750;28;20024;-45
2023/01/03 12:14:12;;;;;;;1.75;0.77;;;;;;;18.54;47.01;100019.91;5091694;28;20103;-45
2023/01/03 12:16:44;;;;;;;3.40;1.08;;;;;;;18.52;47.11;100029.16;5090381;28;20440;-45
2023/01/03 12:19:36;;;;;;;3.22;0.93;;;;;;;18.32;47.12;100016.06;5091708;28;20103;-46
2023/01/03 12:22:21;;;;;;;3.10;1.10;;;;;;;18.09;47.22;100022.78;5090300;28;20023;-45
2023/01/03 12:25:07;;;;;;;7.47;1.23;;;;;;;17.69;47.66;100012.41;5091564;28;20028;-46
2023/01/03 12:27:43;;;;;;;7.50;1.60;;;;;;;17.41;48.30;100007.47;5091369;28;20052;-46
2023/01/03 12:30:18;;;;;;;3.03;1.05;;;;;;;17.36;48.27;100010.78;5091518;28;20067;-45
2023/01/03 12:32:49;;;;;;;9.40;0.98;;;;;;;17.32;48.88;100008.72;5090182;28;20028;-46
2023/01/03 12:35:31;;;;;;;8.85;1.80;;;;;;;17.39;48.83;100004.22;5091489;28;20038;-46
2023/01/03 12:37:58;;;;;;;2.92;1.30;;;;;;;17.64;48.92;99995.50;5091500;28;20498;-46
2023/01/03 12:40:47;;;;;;;6.15;1.10;;;;;;;17.98;48.67;99993.44;5091378;28;20107;-46
2023/01/03 12:43:25;;;;;;;5.78;1.13;;;;;;;18.27;48.13;99997.28;5090069;28;20032;-46